Time;durP1;ratioP1;P1;durP2;ratioP2;P2;SDS_P1;SDS_P2;PMS_P1;PMS_P2;Temp;Humidity;BMP_temperature;BMP_pressure;BME280_temperature;BME280_humidity;BME280_pressure;Samples;Min_cycle;Max_cycle;Signal;HPM_P1;HPM_P2
2022/12/08 00:00:09;;;;;;;9.55;6.90;;;;;;;17.62;58.86;96250.94;5115882;28;20053;-36
2022/12/08 00:02:34;;;;;;;8.85;7.07;;;;;;;17.63;59.23;96246.19;5115929;28;20081;-35
2022/12/08 00:10:28;;;;;;;8.60;6.25;;;;;;;17.53;59.25;96251.06;5115541;28;20384;-35
2022/12/08 00:12:53;;;;;;;9.77;6.35;;;;;;;17.50;59.16;96252.00;5115749;28;20020;-35
2022/12/08 00:15:18;;;;;;;7.50;6.32;;;;;;;17.55;59.15;96249.34;5115871;28;20027;-33
2022/12/08 00:17:44;;;;;;;7.93;6.30;;;;;;;17.54;59.33;96247.84;5115607;28;20031;-35
2022/12/08 00:20:10;;;;;;;7.40;6.25;;;;;;;17.54;59.14;96241.59;5115592;28;20019;-34
2022/12/08 00:22:35;;;;;;;8.15;5.82;;;;;;;17.49;59.19;96237.53;5113556;28;20035;-34
2022/12/08 00:25:00;;;;;;;7.95;6.25;;;;;;;17.58;58.84;96233.91;5113255;28;20039;-35
2022/12/08 00:27:26;;;;;;;7.50;6.10;;;;;;;17.55;59.03;96234.88;5115667;28;20103;-33
2022/12/08 00:29:51;;;;;;;8.65;5.72;;;;;;;17.52;59.03;96222.88;5115501;28;20024;-35
2022/12/08 00:32:17;;;;;;;9.40;5.82;;;;;;;17.56;58.96;96214.44;5115463;28;20020;-34
2022/12/08 00:34:43;;;;;;;9.63;5.68;;;;;;;17.54;58.89;96219.66;5115103;28;20528;-34
2022/12/08 00:37:09;;;;;;;10.30;6.38;;;;;;;17.47;59.12;96218.06;5115362;28;20043;-36
2022/12/08 00:39:34;;;;;;;9.90;5.80;;;;;;;17.52;58.98;96228.34;5115204;27;20058;-34
2022/12/08 00:42:12;;;;;;;7.68;5.50;;;;;;;17.49;59.26;96225.81;5115257;28;20024;-34
2022/12/08 00:44:38;;;;;;;7.28;5.47;;;;;;;17.48;59.32;96227.78;5115080;28;20080;-35
2022/12/08 00:47:04;;;;;;;8.50;5.75;;;;;;;17.51;59.14;96228.84;5114775;28;20015;-33
2022/12/08 00:49:29;;;;;;;9.85;5.32;;;;;;;17.56;59.09;96225.41;5115120;28;20024;-35
2022/12/08 00:51:55;;;;;;;7.90;5.40;;;;;;;17.56;58.90;96228.13;5115027;28;20536;-34
2022/12/08 00:54:24;;;;;;;7.53;5.00;;;;;;;17.50;58.87;96228.06;5114917;28;20028;-36
2022/12/08 00:56:50;;;;;;;11.57;5.55;;;;;;;17.53;58.95;96229.88;5115239;28;20517;-35
2022/12/08 00:59:16;;;;;;;7.55;5.55;;;;;;;17.42;59.11;96235.19;5114934;28;20043;-35
2022/12/08 01:01:44;;;;;;;7.35;4.93;;;;;;;17.46;58.96;96241.22;5114783;28;20061;-36
2022/12/08 01:04:14;;;;;;;6.53;5.18;;;;;;;17.42;59.26;96239.91;5113289;28;20024;-34
2022/12/08 01:06:40;;;;;;;5.43;4.22;;;;;;;17.46;59.32;96238.47;5113147;28;20065;-34
2022/12/08 01:09:06;;;;;;;5.57;4.15;;;;;;;17.47;59.00;96242.72;5114642;28;20031;-34
2022/12/08 01:11:32;;;;;;;8.00;4.63;;;;;;;17.46;59.03;96243.97;5114663;28;20030;-33
2022/12/08 01:13:58;;;;;;;7.10;4.18;;;;;;;17.49;58.97;96237.53;5114719;28;20433;-34
2022/12/08 01:16:27;;;;;;;6.93;4.63;;;;;;;17.48;59.01;96241.50;5114668;28;20066;-33
2022/12/08 01:18:53;;;;;;;6.75;3.85;;;;;;;17.46;59.12;96243.97;5114254;28;20030;-33
2022/12/08 01:21:18;;;;;;;6.57;4.50;;;;;;;17.46;58.84;96252.19;5114337;28;20910;-34
2022/12/08 01:23:44;;;;;;;4.20;3.42;;;;;;;17.42;58.97;96237.94;5114380;28;20110;-34
2022/12/08 01:26:12;;;;;;;5.10;4.20;;;;;;;17.39;59.42;96238.88;5114420;28;20102;-34
2022/12/08 01:28:38;;;;;;;7.68;3.83;;;;;;;17.38;59.38;96248.34;5114436;28;20028;-35
2022/12/08 01:31:04;;;;;;;5.88;3.50;;;;;;;17.38;59.32;96253.81;5114391;28;20485;-34
2022/12/08 01:33:30;;;;;;;6.53;3.67;;;;;;;17.44;59.15;96240.94;5114359;28;20028;-34
2022/12/08 01:36:03;;;;;;;4.90;3.63;;;;;;;17.35;59.25;96235.56;5114392;28;20027;-34
2022/12/08 01:38:29;;;;;;;4.73;3.40;;;;;;;17.45;59.09;96236.97;5114330;28;20031;-34
2022/12/08 01:40:54;;;;;;;5.13;3.30;;;;;;;17.39;59.32;96232.63;5112966;28;20023;-33
2022/12/08 01:43:20;;;;;;;4.75;3.20;;;;;;;17.35;59.37;96232.81;5114189;28;20474;-35
2022/12/08 01:45:46;;;;;;;6.28;3.20;;;;;;;17.44;59.13;96234.69;5114308;28;20032;-33
2022/12/08 01:48:29;;;;;;;4.38;3.03;;;;;;;17.39;59.08;96229.91;5114133;28;20059;-33
2022/12/08 01:50:55;;;;;;;4.45;2.85;;;;;;;17.37;59.24;96230.38;5114078;28;20023;-34
2022/12/08 01:53:31;;;;;;;4.18;2.90;;;;;;;17.37;59.51;96226.88;5113926;28;20023;-34
2022/12/08 01:56:10;;;;;;;5.82;3.17;;;;;;;17.33;59.34;96224.31;5114235;28;20098;-34
2022/12/08 01:58:44;;;;;;;8.82;3.97;;;;;;;17.38;59.24;96226.41;5114056;28;20027;-34
2022/12/08 02:01:10;;;;;;;4.13;3.15;;;;;;;17.38;59.21;96226.41;5113941;28;20168;-34
2022/12/08 02:03:43;;;;;;;4.75;2.80;;;;;;;17.36;59.27;96228.84;5114053;28;20078;-34
2022/12/08 02:06:09;;;;;;;4.13;2.87;;;;;;;17.36;59.44;96234.34;5113791;28;20024;-34
2022/12/08 02:08:37;;;;;;;3.83;2.80;;;;;;;17.33;59.44;96224.31;5113865;28;20734;-33
2022/12/08 02:11:04;;;;;;;6.70;2.90;;;;;;;17.34;59.52;96217.63;5113854;28;20064;-34
2022/12/08 02:13:31;;;;;;;3.75;2.50;;;;;;;17.37;59.35;96218.66;5113813;28;20481;-33
2022/12/08 02:16:03;;;;;;;3.75;2.38;;;;;;;17.31;59.51;96215.09;5113841;28;20020;-35
2022/12/08 02:18:28;;;;;;;5.38;2.80;;;;;;;17.35;59.22;96215.63;5112072;28;20034;-36
2022/12/08 02:21:06;;;;;;;6.68;3.17;;;;;;;17.29;59.52;96209.31;5114061;28;20029;-34
2022/12/08 02:23:32;;;;;;;3.70;2.80;;;;;;;17.35;59.29;96208.16;5113798;28;20020;-34
2022/12/08 02:26:09;;;;;;;5.05;2.80;;;;;;;17.31;59.46;96213.06;5113591;28;20034;-34
2022/12/08 02:29:08;;;;;;;7.13;2.80;;;;;;;17.35;59.35;96210.91;5114847;28;20081;-34
2022/12/08 02:31:52;;;;;;;3.83;2.85;;;;;;;17.34;59.21;96209.38;5116548;28;20023;-35
2022/12/08 02:34:48;;;;;;;4.50;2.35;;;;;;;17.28;59.26;96205.81;5118049;28;20035;-33
2022/12/08 02:37:55;;;;;;;5.95;2.55;;;;;;;17.34;59.35;96203.16;5118133;28;20012;-33
2022/12/08 02:40:28;;;;;;;4.25;2.35;;;;;;;17.30;59.46;96197.88;5116484;28;20483;-33
2022/12/08 02:42:59;;;;;;;;;;;;;;;17.26;59.55;96194.56;5118233;28;20023;-34
2022/12/08 02:45:35;;;;;;;3.78;2.60;;;;;;;17.32;59.36;96192.66;5117515;28;19907;-33
2022/12/08 02:48:00;;;;;;;3.58;2.97;;;;;;;17.28;59.49;96191.38;5117532;27;20024;-33
2022/12/08 02:50:27;;;;;;;4.50;2.70;;;;;;;17.31;59.41;96202.09;5117453;28;20379;-34
2022/12/08 02:52:52;;;;;;;6.10;2.40;;;;;;;17.27;59.63;96195.34;5117519;28;20031;-33
2022/12/08 02:55:41;;;;;;;4.20;2.75;;;;;;;17.27;59.54;96198.06;5117179;28;20102;-34
2022/12/08 02:58:18;;;;;;;3.83;2.50;;;;;;;17.27;59.34;96195.34;5117377;28;20459;-34
2022/12/08 03:01:05;;;;;;;5.18;2.70;;;;;;;17.18;59.84;96188.00;5117526;28;20118;-34
2022/12/08 03:04:20;;;;;;;4.45;2.50;;;;;;;17.20;59.84;96193.72;5117099;28;20047;-33
2022/12/08 03:07:03;;;;;;;5.07;2.50;;;;;;;17.25;59.42;96187.59;5077997;28;20118;-33
2022/12/08 03:09:35;;;;;;;5.38;2.53;;;;;;;17.23;59.65;96190.78;5096833;28;20024;-34
2022/12/08 03:12:17;;;;;;;7.97;2.75;;;;;;;17.27;59.60;96196.09;5096629;28;20027;-34
2022/12/08 03:14:49;;;;;;;4.45;2.50;;;;;;;17.19;59.71;96203.16;5096396;28;20027;-34
2022/12/08 03:17:18;;;;;;;5.32;2.53;;;;;;;17.26;59.58;96204.78;5096649;28;20020;-33
2022/12/08 03:19:45;;;;;;;5.50;2.63;;;;;;;17.23;59.61;96199.03;5096674;28;20023;-34
2022/12/08 03:22:14;;;;;;;4.68;2.90;;;;;;;17.24;59.70;96214.22;5096812;28;20024;-33
2022/12/08 03:24:44;;;;;;;5.40;2.33;;;;;;;17.23;59.63;96209.97;5096710;28;20030;-35
2022/12/08 03:27:19;;;;;;;4.07;2.60;;;;;;;17.25;59.54;96206.75;5096349;28;20020;-36
2022/12/08 03:29:47;;;;;;;4.65;2.60;;;;;;;17.22;59.71;96210.44;5096306;28;20024;-34
2022/12/08 03:32:31;;;;;;;4.82;2.50;;;;;;;17.18;59.68;96218.13;5096220;28;20478;-34
2022/12/08 03:34:59;;;;;;;8.00;2.83;;;;;;;17.10;59.86;96217.75;5096121;28;20028;-33
2022/12/08 03:37:27;;;;;;;6.55;3.00;;;;;;;17.16;59.78;96204.16;5096238;28;20348;-33
2022/12/08 03:39:52;;;;;;;5.45;2.65;;;;;;;17.18;59.59;96218.84;5095526;28;20024;-35
2022/12/08 03:42:18;;;;;;;3.95;2.70;;;;;;;17.15;59.64;96213.59;5096073;28;20035;-35
2022/12/08 03:44:43;;;;;;;4.40;2.88;;;;;;;17.16;59.68;96220.59;5096256;28;20438;-33
2022/12/08 03:47:09;;;;;;;3.55;2.70;;;;;;;17.16;59.87;96220.59;5096173;28;20027;-33
2022/12/08 03:49:34;;;;;;;5.18;3.30;;;;;;;17.14;59.90;96217.56;5095787;28;20125;-35
2022/12/08 03:52:00;;;;;;;5.53;3.10;;;;;;;17.18;59.73;96209.91;5094536;28;20362;-35
2022/12/08 03:54:25;;;;;;;4.45;3.20;;;;;;;17.16;59.91;96215.88;5095889;28;20133;-33
2022/12/08 03:56:51;;;;;;;6.25;3.10;;;;;;;17.14;60.04;96220.31;5095738;28;20104;-34
2022/12/08 03:59:16;;;;;;;7.60;3.25;;;;;;;17.15;59.62;96219.06;5096204;28;20024;-35
2022/12/08 04:01:41;;;;;;;6.38;3.33;;;;;;;17.05;59.71;96217.66;5095400;28;20036;-33
2022/12/08 04:04:07;;;;;;;4.47;3.20;;;;;;;17.05;59.87;96217.66;5095599;28;20028;-34
2022/12/08 04:06:32;;;;;;;5.35;3.50;;;;;;;17.03;60.03;96211.91;5095458;28;20061;-36
2022/12/08 04:08:58;;;;;;;6.60;3.22;;;;;;;17.07;59.82;96218.69;5095660;28;20024;-34
2022/12/08 04:11:23;;;;;;;7.75;3.35;;;;;;;17.09;59.79;96212.72;5094165;28;20365;-34
2022/12/08 04:13:49;;;;;;;5.90;2.80;;;;;;;17.01;60.06;96214.34;5095703;28;20024;-35
2022/12/08 04:16:17;;;;;;;4.60;2.90;;;;;;;17.05;59.81;96214.94;5095563;28;20035;-34
2022/12/08 04:18:42;;;;;;;3.90;2.78;;;;;;;17.04;59.82;96218.91;5095380;28;20422;-34
2022/12/08 04:21:08;;;;;;;5.30;2.95;;;;;;;17.09;59.63;96215.47;5095815;28;20023;-34
2022/12/08 04:23:33;;;;;;;5.90;3.10;;;;;;;17.06;59.83;96211.69;5095260;28;20032;-34
2022/12/08 04:25:59;;;;;;;8.52;2.90;;;;;;;17.04;59.62;96199.72;5095129;28;20069;-34
2022/12/08 04:28:24;;;;;;;4.07;2.78;;;;;;;17.10;59.54;96206.03;5095171;28;20020;-33
2022/12/08 04:30:50;;;;;;;5.88;2.88;;;;;;;16.97;59.67;96213.78;5095036;28;20024;-34
2022/12/08 04:33:16;;;;;;;5.95;2.60;;;;;;;17.01;59.89;96211.63;5095066;28;20028;-34
2022/12/08 04:35:41;;;;;;;3.65;2.45;;;;;;;16.99;59.58;96209.34;5095255;28;20031;-33
2022/12/08 04:38:07;;;;;;;4.15;2.50;;;;;;;17.06;59.12;96208.22;5111541;28;20031;-34
2022/12/08 04:40:32;;;;;;;5.18;2.42;;;;;;;17.01;59.37;96211.63;5115361;28;20027;-34
2022/12/08 04:42:58;;;;;;;6.38;2.35;;;;;;;17.00;59.50;96207.38;5115456;28;20387;-35
2022/12/08 04:45:23;;;;;;;3.95;2.47;;;;;;;17.04;59.50;96213.41;5115062;28;20031;-34
2022/12/08 04:47:49;;;;;;;3.75;1.90;;;;;;;17.05;59.51;96214.94;5115324;28;20105;-34
2022/12/08 04:50:14;;;;;;;3.63;1.88;;;;;;;16.99;59.71;96214.84;5115291;28;20027;-33
2022/12/08 04:52:39;;;;;;;4.93;2.67;;;;;;;17.04;59.62;96213.41;5114134;28;20028;-34
2022/12/08 04:55:05;;;;;;;5.88;2.42;;;;;;;17.02;59.57;96219.38;5113725;28;20055;-34
2022/12/08 04:57:31;;;;;;;2.85;2.00;;;;;;;17.02;59.23;96221.34;5114941;28;20034;-34
2022/12/08 04:59:56;;;;;;;4.82;2.30;;;;;;;17.08;59.11;96227.66;5114852;28;20027;-35
2022/12/08 05:02:21;;;;;;;4.20;2.53;;;;;;;17.06;59.01;96232.88;5114792;28;20173;-34
2022/12/08 05:04:47;;;;;;;4.75;2.03;;;;;;;17.05;59.15;96225.88;5114658;28;20019;-33
2022/12/08 05:07:13;;;;;;;3.22;1.88;;;;;;;17.02;59.36;96229.56;5114669;28;20357;-34
2022/12/08 05:09:38;;;;;;;3.70;1.98;;;;;;;17.04;59.28;96224.38;5114797;28;20089;-34
2022/12/08 05:12:04;;;;;;;4.40;1.90;;;;;;;17.05;59.20;96220.41;5100474;28;20089;-34
2022/12/08 05:14:29;;;;;;;3.85;1.92;;;;;;;17.01;59.09;96219.84;5094223;28;20420;-33
2022/12/08 05:16:55;;;;;;;4.40;2.30;;;;;;;17.03;59.07;96220.13;5094308;28;20028;-33
2022/12/08 05:19:20;;;;;;;5.03;1.98;;;;;;;16.98;59.12;96216.06;5094161;28;20028;-37
2022/12/08 05:21:46;;;;;;;4.65;1.92;;;;;;;16.92;59.31;96217.97;5094185;28;20379;-34
2022/12/08 05:24:11;;;;;;;5.05;1.80;;;;;;;16.98;59.03;96216.06;5094457;28;20020;-34
2022/12/08 05:26:36;;;;;;;2.78;1.88;;;;;;;17.00;59.00;96223.81;5093782;28;20028;-36
2022/12/08 05:29:02;;;;;;;2.65;1.85;;;;;;;16.96;58.98;96218.50;5094199;28;20051;-33
2022/12/08 05:31:28;;;;;;;4.28;2.20;;;;;;;17.00;58.92;96224.56;5094055;28;20475;-33
2022/12/08 05:33:53;;;;;;;5.07;1.90;;;;;;;17.00;58.84;96223.81;5093864;28;20058;-33
2022/12/08 05:36:19;;;;;;;3.33;2.20;;;;;;;16.98;58.88;96220.78;5093613;28;20525;-34
2022/12/08 05:38:45;;;;;;;3.70;1.83;;;;;;;16.99;58.70;96227.78;5089226;28;20144;-33
2022/12/08 05:41:17;;;;;;;5.35;1.90;;;;;;;17.03;58.30;96223.63;5087694;28;20429;-36
2022/12/08 05:43:43;;;;;;;3.63;1.60;;;;;;;17.02;58.43;96229.56;5087685;28;20043;-35
2022/12/08 05:46:09;;;;;;;5.70;2.53;;;;;;;17.00;58.35;96230.03;5090722;28;20024;-34
2022/12/08 05:48:35;;;;;;;3.58;1.88;;;;;;;16.89;58.58;96224.38;5093693;28;20050;-34
2022/12/08 05:51:01;;;;;;;3.28;2.05;;;;;;;16.94;58.37;96225.72;5096536;28;20024;-36
2022/12/08 05:53:26;;;;;;;2.83;1.80;;;;;;;17.00;58.32;96240.25;5109236;28;20034;-35
2022/12/08 05:55:52;;;;;;;4.13;1.95;;;;;;;16.88;58.32;96239.28;5107593;28;20099;-34
2022/12/08 05:58:20;;;;;;;2.67;1.90;;;;;;;16.97;58.37;96246.66;5091253;28;20028;-34
2022/12/08 06:00:46;;;;;;;2.88;1.88;;;;;;;16.93;58.27;96240.63;5091277;28;20039;-35
2022/12/08 06:03:13;;;;;;;2.78;1.65;;;;;;;16.99;57.80;96244.22;5090434;28;20052;-35
2022/12/08 06:05:39;;;;;;;4.10;2.03;;;;;;;16.96;57.80;96251.38;5091262;28;20384;-36
2022/12/08 06:08:05;;;;;;;3.97;1.98;;;;;;;16.90;57.92;96245.06;5096065;28;20545;-33
2022/12/08 06:10:30;;;;;;;2.53;1.75;;;;;;;16.90;58.09;96247.81;5111965;28;20112;-33
2022/12/08 06:12:56;;;;;;;3.47;1.70;;;;;;;16.97;57.57;96246.66;5111912;28;20055;-34
2022/12/08 06:15:21;;;;;;;6.15;1.70;;;;;;;16.91;57.71;96245.81;5111532;28;20035;-34
2022/12/08 06:17:47;;;;;;;2.45;1.50;;;;;;;16.96;57.66;96250.63;5111646;28;20371;-34
2022/12/08 06:20:12;;;;;;;2.42;1.40;;;;;;;16.96;57.21;96247.88;5111718;28;20019;-34
2022/12/08 06:22:38;;;;;;;4.72;1.80;;;;;;;16.93;57.59;96251.59;5110319;28;20035;-33
2022/12/08 06:25:04;;;;;;;3.97;1.70;;;;;;;16.96;57.58;96250.63;5111708;28;20028;-34
2022/12/08 06:27:29;;;;;;;3.15;1.65;;;;;;;16.97;57.40;96254.88;5103010;28;20028;-34
2022/12/08 06:29:55;;;;;;;3.60;1.60;;;;;;;16.89;57.67;96251.78;5093355;28;20027;-34
2022/12/08 06:32:20;;;;;;;3.65;1.60;;;;;;;16.88;57.45;96259.22;5093282;28;20055;-34
2022/12/08 06:34:46;;;;;;;2.38;1.63;;;;;;;16.95;57.29;96257.31;5109371;28;20383;-34
2022/12/08 06:37:11;;;;;;;4.28;1.45;;;;;;;16.85;57.39;96251.94;5113316;28;20486;-35
2022/12/08 06:39:37;;;;;;;3.22;2.25;;;;;;;15.66;58.04;96245.84;5111402;28;20443;-33
2022/12/08 06:45:03;;;;;;;3.60;1.98;;;;;;;16.29;56.69;96265.81;5070725;28;20404;-34
2022/12/08 06:47:29;;;;;;;4.18;1.80;;;;;;;16.57;55.93;96252.66;5069948;28;20037;-34
2022/12/08 06:49:54;;;;;;;3.75;2.03;;;;;;;16.64;55.99;96255.81;5068749;28;20417;-33
2022/12/08 06:52:20;;;;;;;3.92;1.98;;;;;;;16.67;56.17;96260.34;5070601;28;20028;-33
2022/12/08 06:54:45;;;;;;;3.10;1.55;;;;;;;16.69;56.14;96263.34;5069981;28;20086;-36
2022/12/08 06:57:11;;;;;;;6.15;2.10;;;;;;;16.71;56.05;96263.66;5070894;28;20024;-33
2022/12/08 06:59:38;;;;;;;2.45;1.50;;;;;;;16.62;56.59;96260.22;5070492;28;20138;-33
2022/12/08 07:02:04;;;;;;;2.90;1.77;;;;;;;16.68;56.55;96267.34;5070522;28;20448;-33
2022/12/08 07:04:29;;;;;;;2.50;1.52;;;;;;;16.59;56.85;96272.84;5069170;28;20025;-33
2022/12/08 07:06:54;;;;;;;3.58;1.65;;;;;;;16.47;57.30;96274.63;5070013;28;20044;-33
2022/12/08 07:09:20;;;;;;;4.47;1.63;;;;;;;16.62;56.85;96282.09;5070394;28;20028;-33
2022/12/08 07:11:45;;;;;;;3.38;1.80;;;;;;;16.53;57.16;96269.25;5066889;28;20055;-33
2022/12/08 07:14:11;;;;;;;3.85;1.77;;;;;;;16.48;57.29;96273.41;5070197;28;20094;-34
2022/12/08 07:16:38;;;;;;;4.50;1.83;;;;;;;16.50;57.28;96270.19;5073117;28;20080;-33
2022/12/08 07:19:04;;;;;;;2.92;1.80;;;;;;;16.51;57.26;96269.72;5096460;28;20432;-33
2022/12/08 07:21:30;;;;;;;3.70;1.73;;;;;;;16.59;57.17;96267.38;5115739;28;20059;-33
2022/12/08 07:23:55;;;;;;;4.38;1.95;;;;;;;16.65;56.93;96270.25;5116809;28;20031;-33
2022/12/08 07:26:20;;;;;;;5.43;1.92;;;;;;;16.75;56.75;96274.41;5116611;28;20106;-33
2022/12/08 07:28:46;;;;;;;4.18;1.92;;;;;;;16.76;56.36;96278.69;5116977;28;20393;-33
2022/12/08 07:31:20;;;;;;;3.30;1.83;;;;;;;16.66;56.87;96285.47;5116880;28;20051;-34
2022/12/08 07:33:46;;;;;;;4.47;2.00;;;;;;;16.81;56.47;96289.72;5116574;28;20452;-33
2022/12/08 07:36:12;;;;;;;2.80;2.05;;;;;;;16.83;56.52;96289.25;5115596;28;20054;-33
2022/12/08 07:38:38;;;;;;;4.13;1.65;;;;;;;16.69;57.00;96285.25;5116682;28;20066;-33
2022/12/08 07:41:04;;;;;;;5.72;1.70;;;;;;;16.74;56.83;96295.56;5116583;27;20027;-33
2022/12/08 07:43:29;;;;;;;2.95;1.60;;;;;;;16.80;56.68;96296.44;5116446;28;20020;-33
2022/12/08 07:45:54;;;;;;;3.25;2.00;;;;;;;16.81;56.74;96289.72;5116365;28;20388;-33
2022/12/08 07:48:20;;;;;;;4.63;2.38;;;;;;;16.82;56.45;96293.22;5116295;28;20024;-33
2022/12/08 07:50:46;;;;;;;7.60;2.95;;;;;;;16.84;56.32;96294.25;5116562;28;20049;-33
2022/12/08 07:53:12;;;;;;;4.35;3.08;;;;;;;16.79;56.75;96305.13;5116159;28;20380;-34
2022/12/08 07:55:42;;;;;;;7.38;4.05;;;;;;;16.74;56.70;96301.03;5116191;28;20160;-34
2022/12/08 07:58:08;;;;;;;6.55;4.03;;;;;;;16.74;56.75;96300.28;5116173;28;20550;-33
2022/12/08 08:00:34;;;;;;;6.85;4.22;;;;;;;16.81;56.47;96310.91;5116136;28;20027;-33
2022/12/08 08:03:00;;;;;;;8.25;4.03;;;;;;;16.74;56.88;96295.56;5115876;27;20051;-33
2022/12/08 08:05:25;;;;;;;6.78;4.13;;;;;;;16.61;57.13;96303.25;5116124;28;20034;-33
2022/12/08 08:07:51;;;;;;;8.50;4.93;;;;;;;16.73;56.86;96302.28;5115935;28;20039;-33
2022/12/08 08:10:16;;;;;;;7.40;5.07;;;;;;;16.79;56.59;96308.63;5116032;28;20067;-33
2022/12/08 08:12:42;;;;;;;6.38;4.68;;;;;;;16.81;56.47;96303.41;5116255;28;20055;-33
2022/12/08 08:15:08;;;;;;;6.72;4.45;;;;;;;16.66;56.99;96299.91;5115790;28;20024;-34
2022/12/08 08:17:36;;;;;;;5.47;4.47;;;;;;;16.78;56.71;96301.63;5115938;28;20119;-34
2022/12/08 08:20:06;;;;;;;6.63;4.05;;;;;;;16.79;56.67;96314.09;5115706;28;20026;-34
2022/12/08 08:22:32;;;;;;;8.20;4.13;;;;;;;16.81;56.74;96311.63;5115697;28;20047;-33
2022/12/08 08:24:58;;;;;;;6.68;3.78;;;;;;;16.80;56.41;96307.41;5115301;28;20015;-33
2022/12/08 08:27:25;;;;;;;7.50;3.75;;;;;;;16.77;56.64;96310.31;5101240;28;20058;-34
2022/12/08 08:29:51;;;;;;;5.20;3.63;;;;;;;16.81;56.62;96311.63;5093062;28;20057;-33
2022/12/08 08:32:16;;;;;;;4.63;3.30;;;;;;;16.78;56.51;96312.59;5094983;28;20038;-33
2022/12/08 08:34:42;;;;;;;5.70;3.78;;;;;;;16.83;56.55;96319.38;5093841;28;20388;-33
2022/12/08 08:37:07;;;;;;;4.55;2.97;;;;;;;16.79;56.61;96325.06;5095079;28;20089;-33
2022/12/08 08:39:33;;;;;;;6.13;3.20;;;;;;;16.68;57.14;96324.84;5094965;28;20078;-35
2022/12/08 08:41:58;;;;;;;4.90;3.20;;;;;;;16.83;56.57;96320.13;5094848;28;20054;-33
2022/12/08 08:44:24;;;;;;;5.13;3.40;;;;;;;16.80;56.68;96317.59;5094884;28;20020;-33
2022/12/08 08:46:49;;;;;;;4.95;2.97;;;;;;;16.70;57.12;96321.63;5094578;28;20093;-35
2022/12/08 08:49:14;;;;;;;6.47;2.90;;;;;;;16.78;56.70;96320.81;5094753;28;20055;-34
2022/12/08 08:51:40;;;;;;;4.10;2.60;;;;;;;16.74;56.80;96311.25;5094811;28;20016;-34
2022/12/08 08:54:05;;;;;;;5.10;2.88;;;;;;;16.74;56.83;96324.94;5093573;28;20495;-34
2022/12/08 08:56:31;;;;;;;3.85;2.50;;;;;;;16.78;56.94;96323.53;5093313;28;20098;-33
2022/12/08 08:58:56;;;;;;;7.00;2.70;;;;;;;16.73;56.88;96317.94;5094900;28;20027;-33
2022/12/08 09:01:25;;;;;;;3.28;2.35;;;;;;;16.62;57.34;96325.91;5094428;28;20162;-33
2022/12/08 09:03:51;;;;;;;3.20;2.33;;;;;;;16.68;56.88;96322.09;5093949;28;20372;-33
2022/12/08 09:06:16;;;;;;;3.40;2.30;;;;;;;16.69;57.06;96323.59;5096403;28;20027;-34
2022/12/08 09:08:43;;;;;;;4.95;2.40;;;;;;;16.70;57.01;96322.38;5094547;28;20422;-33
2022/12/08 09:11:09;;;;;;;3.22;2.85;;;;;;;16.68;56.99;96333.06;5094414;28;20102;-33
2022/12/08 09:13:35;;;;;;;7.18;2.80;;;;;;;16.73;56.84;96329.66;5094405;28;20103;-34
2022/12/08 09:16:01;;;;;;;6.05;2.42;;;;;;;16.74;56.83;96333.91;5094325;28;20016;-33
2022/12/08 09:18:28;;;;;;;4.57;2.20;;;;;;;16.62;57.32;96336.88;5094383;28;20023;-34
2022/12/08 09:20:53;;;;;;;5.35;2.45;;;;;;;16.73;56.96;96343.34;5094169;28;20019;-33
2022/12/08 09:23:19;;;;;;;4.82;2.10;;;;;;;16.73;56.95;96335.13;5092721;28;20512;-33
2022/12/08 09:25:45;;;;;;;5.70;2.47;;;;;;;16.75;57.09;96334.66;5113927;28;20027;-33
2022/12/08 09:28:11;;;;;;;3.83;2.20;;;;;;;16.68;57.21;96324.84;5114198;28;20034;-34
2022/12/08 09:30:37;;;;;;;6.32;2.28;;;;;;;16.68;57.16;96330.31;5114195;28;20356;-34
2022/12/08 09:33:03;;;;;;;3.55;2.30;;;;;;;16.70;57.10;96332.56;5114150;28;20034;-35
2022/12/08 09:35:28;;;;;;;6.43;2.13;;;;;;;16.67;57.20;96337.03;5114504;28;20067;-33
2022/12/08 09:37:54;;;;;;;5.47;2.08;;;;;;;16.74;57.01;96341.38;5113697;28;20023;-33
2022/12/08 09:40:22;;;;;;;5.50;2.08;;;;;;;16.76;57.04;96334.19;5114401;28;20023;-35
2022/12/08 09:43:02;;;;;;;3.72;2.20;;;;;;;16.72;57.16;96333.63;5113069;28;20392;-33
2022/12/08 09:45:32;;;;;;;5.47;2.40;;;;;;;16.70;57.12;96332.56;5114392;28;20031;-35
2022/12/08 09:48:30;;;;;;;5.45;2.22;;;;;;;16.58;57.68;96331.56;5113971;28;20036;-33
2022/12/08 09:50:57;;;;;;;3.88;1.92;;;;;;;16.65;57.39;96320.31;5113554;28;20039;-33
2022/12/08 09:53:29;;;;;;;5.80;2.00;;;;;;;16.68;57.35;96324.09;5114001;28;20023;-35
2022/12/08 09:56:01;;;;;;;4.60;1.95;;;;;;;16.52;57.86;96322.50;5114104;28;20019;-35
2022/12/08 09:58:46;;;;;;;4.22;2.05;;;;;;;16.60;57.62;96326.38;5113753;28;20028;-34
2022/12/08 10:01:15;;;;;;;3.65;2.08;;;;;;;16.61;57.70;96321.66;5112508;28;20022;-37
2022/12/08 10:03:41;;;;;;;5.65;2.15;;;;;;;16.69;57.45;96317.38;5114244;28;20456;-34
2022/12/08 10:06:29;;;;;;;3.97;2.13;;;;;;;16.70;57.37;96310.66;5114054;28;20070;-34
2022/12/08 10:09:30;;;;;;;4.30;1.92;;;;;;;16.71;57.38;96310.19;5113940;28;20024;-34
2022/12/08 10:11:58;;;;;;;2.65;1.70;;;;;;;16.71;57.21;96307.47;5113879;28;20036;-33
2022/12/08 10:14:35;;;;;;;3.45;1.92;;;;;;;16.63;57.71;96306.31;5113878;28;20030;-34
2022/12/08 10:17:15;;;;;;;4.40;2.13;;;;;;;16.68;57.54;96308.41;5113855;28;20016;-34
2022/12/08 10:19:42;;;;;;;2.95;1.63;;;;;;;16.59;58.01;96304.94;5113635;28;20026;-34
2022/12/08 10:22:18;;;;;;;5.75;1.90;;;;;;;16.55;57.92;96307.88;5113437;28;20012;-34
2022/12/08 10:24:59;;;;;;;5.30;2.15;;;;;;;16.61;57.80;96311.47;5093696;28;20028;-34
2022/12/08 10:27:25;;;;;;;4.57;1.80;;;;;;;16.66;57.66;96305.38;5093441;28;20526;-34
2022/12/08 10:29:51;;;;;;;4.28;1.75;;;;;;;16.68;57.53;96310.41;5093390;28;20039;-34
2022/12/08 10:32:22;;;;;;;8.32;2.67;;;;;;;16.67;57.61;96311.63;5093554;28;20024;-34
2022/12/08 10:34:57;;;;;;;8.60;2.15;;;;;;;16.49;58.18;96312.47;5092855;28;20031;-34
2022/12/08 10:37:23;;;;;;;5.07;2.33;;;;;;;16.70;57.44;96316.13;5099673;28;20376;-34
2022/12/08 10:40:07;;;;;;;6.65;2.65;;;;;;;16.64;57.67;96302.34;5112905;28;20024;-34
2022/12/08 10:42:39;;;;;;;10.07;3.00;;;;;;;16.54;58.04;96300.91;5112499;28;20011;-35
2022/12/08 10:45:08;;;;;;;7.68;3.13;;;;;;;16.49;58.16;96296.81;5113276;28;20045;-33
2022/12/08 10:47:39;;;;;;;10.40;2.30;;;;;;;16.41;58.54;96295.66;5113721;28;20055;-35
2022/12/08 10:50:21;;;;;;;6.70;2.40;;;;;;;16.63;57.80;96305.56;5113967;28;20518;-34
2022/12/08 10:52:57;;;;;;;7.93;3.08;;;;;;;16.63;57.76;96300.09;5117257;28;20540;-34
2022/12/08 10:55:23;;;;;;;6.30;2.20;;;;;;;16.65;57.63;96295.66;5117415;27;20494;-35
2022/12/08 10:57:48;;;;;;;6.75;2.10;;;;;;;16.72;57.47;96298.03;5117206;28;20463;-34
2022/12/08 11:00:19;;;;;;;7.30;2.08;;;;;;;16.72;57.42;96298.03;5116784;28;20034;-34
2022/12/08 11:02:57;;;;;;;4.30;2.08;;;;;;;16.58;57.81;96295.97;5116765;28;20431;-34
2022/12/08 11:05:28;;;;;;;3.60;1.83;;;;;;;16.46;58.18;96292.25;5117324;27;20024;-33
2022/12/08 11:07:55;;;;;;;9.25;2.35;;;;;;;16.43;58.42;96295.22;5117289;28;20033;-36
2022/12/08 11:10:31;;;;;;;7.65;2.78;;;;;;;16.50;58.11;96283.88;5113147;28;20030;-34
2022/12/08 11:13:00;;;;;;;4.47;2.35;;;;;;;16.35;58.72;96297.53;5117329;28;20027;-34
2022/12/08 11:15:33;;;;;;;4.50;2.50;;;;;;;16.10;59.46;96287.06;5117118;28;20084;-34
2022/12/08 11:18:05;;;;;;;4.07;2.03;;;;;;;16.21;59.21;96281.06;5116471;28;20461;-35
2022/12/08 11:20:39;;;;;;;6.55;2.17;;;;;;;16.27;58.89;96290.16;5116482;28;20409;-34
2022/12/08 11:23:19;;;;;;;5.72;2.22;;;;;;;16.28;58.80;96273.25;5116917;28;20027;-34
2022/12/08 11:25:46;;;;;;;7.03;2.10;;;;;;;16.25;58.90;96274.19;5115686;28;20544;-34
2022/12/08 11:28:11;;;;;;;5.75;2.72;;;;;;;16.33;58.69;96278.06;5116477;28;20106;-35
2022/12/08 11:30:43;;;;;;;7.63;2.83;;;;;;;16.32;58.78;96282.03;5116631;28;20047;-34
2022/12/08 11:33:19;;;;;;;7.07;2.43;;;;;;;16.31;58.61;96282.53;5116659;28;20019;-34
2022/12/08 11:35:51;;;;;;;8.38;3.25;;;;;;;16.43;58.07;96276.03;5116769;28;20023;-35
2022/12/08 11:38:20;;;;;;;6.78;3.10;;;;;;;16.27;58.35;96271.75;5116566;28;20494;-34
2022/12/08 11:40:49;;;;;;;6.32;3.10;;;;;;;16.22;58.75;96271.63;5116582;28;20414;-34
2022/12/08 11:43:33;;;;;;;4.57;2.65;;;;;;;16.20;58.71;96271.31;5116400;28;20058;-34
2022/12/08 11:46:20;;;;;;;5.20;2.40;;;;;;;16.27;58.66;96273.72;5116205;28;20024;-34
2022/12/08 11:49:11;;;;;;;4.32;3.10;;;;;;;16.46;57.79;96281.31;5115829;28;20381;-34